Homer, Louisiana
Current Conditions -  °F | °C
As of 6:18 PM on Friday 21 Nov 2014 (Local Time) from KMNE Reporting Station
Broken Clouds Broken Clouds  
Wind Chill: 59°   Ceiling: 9000
Heat Index: 59°   Visibility: 10mi
Dew Point: 52°   Wind: 7mph
Humidity: 77%   Direction: 110°ESE
Pressure: 30.2"   Gusts: NA
Location:  32.79°N, 93.06°W
Report Text: KMNE 220018Z AUTO 11006KT 10SM SCT065 BKN090 15/11 A3020 RMK AO2
Loading
Personal Weather Stations






























Interactive Weather Map New forecast layout! Learn more

10-Day Weather Forecast

Advertisements
Track Severe Weather on mobile